sensor_id;sensor_type;location;lat;lon;timestamp;P1;durP1;ratioP1;P2;durP2;ratioP2
82722;SDS011;72450;42.008;21.356;2023-10-19T00:01:57;15.40;;;11.27;;
82722;SDS011;72450;42.008;21.356;2023-10-19T00:04:24;14.60;;;10.40;;
82722;SDS011;72450;42.008;21.356;2023-10-19T00:06:51;14.98;;;10.30;;
82722;SDS011;72450;42.008;21.356;2023-10-19T00:09:20;14.65;;;10.27;;
82722;SDS011;72450;42.008;21.356;2023-10-19T00:11:46;18.15;;;11.48;;
82722;SDS011;72450;42.008;21.356;2023-10-19T00:14:16;14.88;;;10.40;;
82722;SDS011;72450;42.008;21.356;2023-10-19T00:16:46;15.60;;;10.80;;
82722;SDS011;72450;42.008;21.356;2023-10-19T00:19:17;16.98;;;10.65;;
82722;SDS011;72450;42.008;21.356;2023-10-19T00:21:46;12.93;;;10.18;;
82722;SDS011;72450;42.008;21.356;2023-10-19T00:24:19;13.20;;;10.20;;
82722;SDS011;72450;42.008;21.356;2023-10-19T00:26:47;15.05;;;10.55;;
82722;SDS011;72450;42.008;21.356;2023-10-19T00:29:13;13.35;;;11.10;;
82722;SDS011;72450;42.008;21.356;2023-10-19T00:31:56;14.40;;;10.85;;
82722;SDS011;72450;42.008;21.356;2023-10-19T00:34:23;13.63;;;10.38;;
82722;SDS011;72450;42.008;21.356;2023-10-19T00:41:46;17.25;;;10.70;;
82722;SDS011;72450;42.008;21.356;2023-10-19T00:44:13;14.32;;;10.88;;
82722;SDS011;72450;42.008;21.356;2023-10-19T00:47:01;15.23;;;10.63;;
82722;SDS011;72450;42.008;21.356;2023-10-19T00:49:33;14.85;;;10.57;;
82722;SDS011;72450;42.008;21.356;2023-10-19T00:51:59;18.95;;;10.52;;
82722;SDS011;72450;42.008;21.356;2023-10-19T00:54:44;14.40;;;10.43;;
82722;SDS011;72450;42.008;21.356;2023-10-19T00:57:11;16.80;;;12.50;;
82722;SDS011;72450;42.008;21.356;2023-10-19T00:59:38;19.30;;;12.57;;
82722;SDS011;72450;42.008;21.356;2023-10-19T01:02:25;22.88;;;10.70;;
82722;SDS011;72450;42.008;21.356;2023-10-19T01:04:55;19.13;;;12.48;;
82722;SDS011;72450;42.008;21.356;2023-10-19T01:07:28;19.25;;;13.65;;
82722;SDS011;72450;42.008;21.356;2023-10-19T01:09:55;18.55;;;13.05;;
82722;SDS011;72450;42.008;21.356;2023-10-19T01:17:39;21.60;;;11.48;;
82722;SDS011;72450;42.008;21.356;2023-10-19T01:20:09;17.25;;;10.82;;
82722;SDS011;72450;42.008;21.356;2023-10-19T01:22:49;18.38;;;11.63;;
82722;SDS011;72450;42.008;21.356;2023-10-19T01:25:19;15.98;;;11.43;;
82722;SDS011;72450;42.008;21.356;2023-10-19T01:27:49;18.90;;;10.15;;
82722;SDS011;72450;42.008;21.356;2023-10-19T01:30:20;17.33;;;11.35;;
82722;SDS011;72450;42.008;21.356;2023-10-19T01:32:46;18.40;;;13.35;;
82722;SDS011;72450;42.008;21.356;2023-10-19T01:35:12;15.98;;;10.65;;
82722;SDS011;72450;42.008;21.356;2023-10-19T01:37:38;18.73;;;12.73;;
82722;SDS011;72450;42.008;21.356;2023-10-19T01:40:04;20.42;;;13.30;;
82722;SDS011;72450;42.008;21.356;2023-10-19T01:42:30;16.10;;;9.80;;
82722;SDS011;72450;42.008;21.356;2023-10-19T01:44:56;18.40;;;12.50;;
82722;SDS011;72450;42.008;21.356;2023-10-19T01:47:22;17.58;;;11.80;;
82722;SDS011;72450;42.008;21.356;2023-10-19T01:49:49;16.67;;;10.65;;
82722;SDS011;72450;42.008;21.356;2023-10-19T01:52:17;17.25;;;12.65;;
82722;SDS011;72450;42.008;21.356;2023-10-19T01:54:43;16.85;;;11.30;;
82722;SDS011;72450;42.008;21.356;2023-10-19T01:57:09;20.73;;;12.23;;
82722;SDS011;72450;42.008;21.356;2023-10-19T01:59:37;16.55;;;12.23;;
82722;SDS011;72450;42.008;21.356;2023-10-19T02:02:03;15.00;;;10.13;;
82722;SDS011;72450;42.008;21.356;2023-10-19T02:04:29;19.58;;;11.70;;
82722;SDS011;72450;42.008;21.356;2023-10-19T02:07:00;17.25;;;11.13;;
82722;SDS011;72450;42.008;21.356;2023-10-19T02:09:26;17.42;;;11.52;;
82722;SDS011;72450;42.008;21.356;2023-10-19T02:11:54;18.08;;;13.50;;
82722;SDS011;72450;42.008;21.356;2023-10-19T02:14:22;17.85;;;11.60;;
82722;SDS011;72450;42.008;21.356;2023-10-19T02:16:50;19.23;;;12.50;;
82722;SDS011;72450;42.008;21.356;2023-10-19T02:19:17;17.65;;;11.60;;
82722;SDS011;72450;42.008;21.356;2023-10-19T02:21:45;18.13;;;11.43;;
82722;SDS011;72450;42.008;21.356;2023-10-19T02:24:13;17.05;;;11.68;;
82722;SDS011;72450;42.008;21.356;2023-10-19T02:26:40;18.33;;;11.80;;
82722;SDS011;72450;42.008;21.356;2023-10-19T02:29:06;14.55;;;10.90;;
82722;SDS011;72450;42.008;21.356;2023-10-19T02:31:34;17.92;;;12.10;;
82722;SDS011;72450;42.008;21.356;2023-10-19T02:34:03;16.63;;;10.93;;
82722;SDS011;72450;42.008;21.356;2023-10-19T02:36:32;21.95;;;11.23;;
82722;SDS011;72450;42.008;21.356;2023-10-19T02:39:02;14.85;;;11.13;;
82722;SDS011;72450;42.008;21.356;2023-10-19T02:41:32;15.25;;;11.27;;
82722;SDS011;72450;42.008;21.356;2023-10-19T02:44:00;15.30;;;9.90;;
82722;SDS011;72450;42.008;21.356;2023-10-19T02:46:29;18.65;;;11.60;;
82722;SDS011;72450;42.008;21.356;2023-10-19T02:48:59;16.55;;;10.38;;
82722;SDS011;72450;42.008;21.356;2023-10-19T02:51:25;17.92;;;11.13;;
82722;SDS011;72450;42.008;21.356;2023-10-19T02:53:51;16.63;;;11.65;;
82722;SDS011;72450;42.008;21.356;2023-10-19T02:56:18;15.32;;;9.82;;
82722;SDS011;72450;42.008;21.356;2023-10-19T02:58:45;14.40;;;10.55;;
82722;SDS011;72450;42.008;21.356;2023-10-19T03:01:15;15.05;;;10.32;;
82722;SDS011;72450;42.008;21.356;2023-10-19T03:03:44;14.45;;;9.35;;
82722;SDS011;72450;42.008;21.356;2023-10-19T03:06:11;17.25;;;9.63;;
82722;SDS011;72450;42.008;21.356;2023-10-19T03:08:37;14.13;;;10.10;;
82722;SDS011;72450;42.008;21.356;2023-10-19T03:11:03;14.65;;;9.13;;
82722;SDS011;72450;42.008;21.356;2023-10-19T03:13:29;15.57;;;11.25;;
82722;SDS011;72450;42.008;21.356;2023-10-19T03:15:58;12.93;;;9.00;;
82722;SDS011;72450;42.008;21.356;2023-10-19T03:18:32;12.48;;;9.65;;
82722;SDS011;72450;42.008;21.356;2023-10-19T03:20:58;12.43;;;9.80;;
82722;SDS011;72450;42.008;21.356;2023-10-19T03:23:25;15.43;;;9.60;;
82722;SDS011;72450;42.008;21.356;2023-10-19T03:25:55;17.35;;;10.15;;
82722;SDS011;72450;42.008;21.356;2023-10-19T03:28:40;14.27;;;10.25;;
82722;SDS011;72450;42.008;21.356;2023-10-19T03:31:06;16.70;;;9.07;;
82722;SDS011;72450;42.008;21.356;2023-10-19T03:33:33;14.13;;;9.43;;
82722;SDS011;72450;42.008;21.356;2023-10-19T03:36:01;14.60;;;10.27;;
82722;SDS011;72450;42.008;21.356;2023-10-19T03:38:29;13.73;;;9.43;;
82722;SDS011;72450;42.008;21.356;2023-10-19T03:41:01;14.15;;;8.75;;
82722;SDS011;72450;42.008;21.356;2023-10-19T03:43:32;13.45;;;9.43;;
82722;SDS011;72450;42.008;21.356;2023-10-19T03:45:58;13.10;;;10.40;;
82722;SDS011;72450;42.008;21.356;2023-10-19T03:48:29;15.90;;;9.70;;
82722;SDS011;72450;42.008;21.356;2023-10-19T03:50:59;11.52;;;8.32;;
82722;SDS011;72450;42.008;21.356;2023-10-19T03:53:27;14.80;;;10.10;;
82722;SDS011;72450;42.008;21.356;2023-10-19T03:55:54;12.38;;;8.73;;
82722;SDS011;72450;42.008;21.356;2023-10-19T03:58:20;12.70;;;9.60;;
82722;SDS011;72450;42.008;21.356;2023-10-19T04:00:47;14.10;;;8.88;;
82722;SDS011;72450;42.008;21.356;2023-10-19T04:03:16;11.75;;;8.30;;
82722;SDS011;72450;42.008;21.356;2023-10-19T04:05:43;13.95;;;9.90;;
82722;SDS011;72450;42.008;21.356;2023-10-19T04:08:12;16.80;;;9.82;;
82722;SDS011;72450;42.008;21.356;2023-10-19T04:10:45;15.30;;;9.02;;
82722;SDS011;72450;42.008;21.356;2023-10-19T04:13:33;14.02;;;10.10;;
82722;SDS011;72450;42.008;21.356;2023-10-19T04:16:01;15.52;;;9.57;;
82722;SDS011;72450;42.008;21.356;2023-10-19T04:18:27;15.65;;;8.57;;
82722;SDS011;72450;42.008;21.356;2023-10-19T04:20:53;13.85;;;10.68;;
82722;SDS011;72450;42.008;21.356;2023-10-19T04:23:20;18.35;;;10.00;;
82722;SDS011;72450;42.008;21.356;2023-10-19T04:25:46;13.98;;;10.75;;
82722;SDS011;72450;42.008;21.356;2023-10-19T04:28:13;15.23;;;10.52;;
82722;SDS011;72450;42.008;21.356;2023-10-19T04:30:39;13.23;;;9.88;;
82722;SDS011;72450;42.008;21.356;2023-10-19T04:33:05;15.23;;;10.77;;
82722;SDS011;72450;42.008;21.356;2023-10-19T04:35:35;15.48;;;11.27;;
82722;SDS011;72450;42.008;21.356;2023-10-19T04:38:03;20.77;;;11.25;;
82722;SDS011;72450;42.008;21.356;2023-10-19T04:40:31;21.70;;;11.48;;
82722;SDS011;72450;42.008;21.356;2023-10-19T04:42:57;15.80;;;10.35;;
82722;SDS011;72450;42.008;21.356;2023-10-19T04:45:24;12.52;;;9.55;;
82722;SDS011;72450;42.008;21.356;2023-10-19T04:47:51;15.20;;;9.88;;
82722;SDS011;72450;42.008;21.356;2023-10-19T04:50:20;13.43;;;8.68;;
82722;SDS011;72450;42.008;21.356;2023-10-19T04:52:46;13.77;;;10.07;;
82722;SDS011;72450;42.008;21.356;2023-10-19T04:55:15;12.63;;;9.10;;
82722;SDS011;72450;42.008;21.356;2023-10-19T04:57:41;15.35;;;10.38;;
82722;SDS011;72450;42.008;21.356;2023-10-19T05:00:07;21.25;;;11.00;;
82722;SDS011;72450;42.008;21.356;2023-10-19T05:02:38;15.80;;;9.98;;
82722;SDS011;72450;42.008;21.356;2023-10-19T05:05:04;15.75;;;10.60;;
82722;SDS011;72450;42.008;21.356;2023-10-19T05:07:30;14.00;;;10.13;;
82722;SDS011;72450;42.008;21.356;2023-10-19T05:09:58;16.42;;;10.02;;
82722;SDS011;72450;42.008;21.356;2023-10-19T05:12:24;17.08;;;9.77;;
82722;SDS011;72450;42.008;21.356;2023-10-19T05:14:50;15.25;;;11.52;;
82722;SDS011;72450;42.008;21.356;2023-10-19T05:17:16;13.55;;;9.55;;
82722;SDS011;72450;42.008;21.356;2023-10-19T05:19:46;19.77;;;11.50;;
82722;SDS011;72450;42.008;21.356;2023-10-19T05:22:12;14.70;;;9.85;;
82722;SDS011;72450;42.008;21.356;2023-10-19T05:24:38;14.95;;;10.32;;
82722;SDS011;72450;42.008;21.356;2023-10-19T05:27:04;14.80;;;9.70;;
82722;SDS011;72450;42.008;21.356;2023-10-19T05:29:33;14.40;;;9.82;;
82722;SDS011;72450;42.008;21.356;2023-10-19T05:31:59;12.98;;;10.15;;
82722;SDS011;72450;42.008;21.356;2023-10-19T05:34:27;15.82;;;10.10;;
82722;SDS011;72450;42.008;21.356;2023-10-19T05:39:23;12.52;;;9.85;;
82722;SDS011;72450;42.008;21.356;2023-10-19T05:41:53;13.93;;;9.00;;
82722;SDS011;72450;42.008;21.356;2023-10-19T05:44:19;19.23;;;11.82;;
82722;SDS011;72450;42.008;21.356;2023-10-19T05:46:45;14.73;;;10.00;;
82722;SDS011;72450;42.008;21.356;2023-10-19T05:49:12;15.73;;;10.07;;
82722;SDS011;72450;42.008;21.356;2023-10-19T05:51:38;15.82;;;11.38;;
82722;SDS011;72450;42.008;21.356;2023-10-19T05:54:06;15.98;;;10.40;;
82722;SDS011;72450;42.008;21.356;2023-10-19T05:56:33;18.58;;;12.30;;
82722;SDS011;72450;42.008;21.356;2023-10-19T05:58:59;18.33;;;12.70;;
82722;SDS011;72450;42.008;21.356;2023-10-19T06:01:26;16.30;;;10.55;;
82722;SDS011;72450;42.008;21.356;2023-10-19T06:03:52;16.98;;;12.77;;
82722;SDS011;72450;42.008;21.356;2023-10-19T06:06:21;18.40;;;11.02;;
82722;SDS011;72450;42.008;21.356;2023-10-19T06:08:48;22.25;;;12.40;;
82722;SDS011;72450;42.008;21.356;2023-10-19T06:11:18;17.10;;;10.90;;
82722;SDS011;72450;42.008;21.356;2023-10-19T06:13:44;13.63;;;10.55;;
82722;SDS011;72450;42.008;21.356;2023-10-19T06:16:11;19.92;;;12.05;;
82722;SDS011;72450;42.008;21.356;2023-10-19T06:18:37;22.95;;;13.20;;
82722;SDS011;72450;42.008;21.356;2023-10-19T06:21:03;20.15;;;13.13;;
82722;SDS011;72450;42.008;21.356;2023-10-19T06:23:29;19.75;;;13.77;;
82722;SDS011;72450;42.008;21.356;2023-10-19T06:25:56;21.88;;;12.02;;
82722;SDS011;72450;42.008;21.356;2023-10-19T06:28:22;20.58;;;13.10;;
82722;SDS011;72450;42.008;21.356;2023-10-19T06:30:48;17.70;;;14.25;;
82722;SDS011;72450;42.008;21.356;2023-10-19T06:33:15;16.50;;;11.68;;
82722;SDS011;72450;42.008;21.356;2023-10-19T06:35:42;20.38;;;11.82;;
82722;SDS011;72450;42.008;21.356;2023-10-19T06:38:08;16.35;;;11.45;;
82722;SDS011;72450;42.008;21.356;2023-10-19T06:40:34;15.52;;;11.05;;
82722;SDS011;72450;42.008;21.356;2023-10-19T06:43:04;18.58;;;12.95;;
82722;SDS011;72450;42.008;21.356;2023-10-19T06:45:30;18.38;;;11.45;;
82722;SDS011;72450;42.008;21.356;2023-10-19T06:47:56;22.70;;;13.15;;
82722;SDS011;72450;42.008;21.356;2023-10-19T06:50:23;17.85;;;11.30;;
82722;SDS011;72450;42.008;21.356;2023-10-19T06:52:49;20.25;;;12.18;;
82722;SDS011;72450;42.008;21.356;2023-10-19T06:55:16;16.90;;;11.50;;
82722;SDS011;72450;42.008;21.356;2023-10-19T06:57:44;19.10;;;11.77;;
82722;SDS011;72450;42.008;21.356;2023-10-19T07:00:14;16.33;;;12.65;;
82722;SDS011;72450;42.008;21.356;2023-10-19T07:02:43;18.58;;;12.10;;
82722;SDS011;72450;42.008;21.356;2023-10-19T07:05:09;22.02;;;13.30;;
82722;SDS011;72450;42.008;21.356;2023-10-19T07:07:37;22.63;;;13.00;;
82722;SDS011;72450;42.008;21.356;2023-10-19T07:10:05;15.88;;;11.73;;
82722;SDS011;72450;42.008;21.356;2023-10-19T07:12:31;18.85;;;14.23;;
82722;SDS011;72450;42.008;21.356;2023-10-19T07:14:57;20.08;;;11.10;;
82722;SDS011;72450;42.008;21.356;2023-10-19T07:17:26;14.88;;;9.25;;
82722;SDS011;72450;42.008;21.356;2023-10-19T07:19:52;19.85;;;12.10;;
82722;SDS011;72450;42.008;21.356;2023-10-19T07:22:18;17.27;;;11.70;;
82722;SDS011;72450;42.008;21.356;2023-10-19T07:24:48;16.85;;;12.45;;
82722;SDS011;72450;42.008;21.356;2023-10-19T07:27:14;17.95;;;11.23;;
82722;SDS011;72450;42.008;21.356;2023-10-19T07:29:46;16.65;;;11.73;;
82722;SDS011;72450;42.008;21.356;2023-10-19T07:32:15;20.35;;;12.65;;
82722;SDS011;72450;42.008;21.356;2023-10-19T07:34:42;18.88;;;10.80;;
82722;SDS011;72450;42.008;21.356;2023-10-19T07:37:11;16.67;;;11.23;;
82722;SDS011;72450;42.008;21.356;2023-10-19T07:39:47;16.95;;;11.55;;
82722;SDS011;72450;42.008;21.356;2023-10-19T07:42:16;30.33;;;16.85;;
82722;SDS011;72450;42.008;21.356;2023-10-19T07:44:42;23.73;;;12.77;;
82722;SDS011;72450;42.008;21.356;2023-10-19T07:47:10;18.40;;;11.75;;
82722;SDS011;72450;42.008;21.356;2023-10-19T07:49:37;18.67;;;11.93;;
82722;SDS011;72450;42.008;21.356;2023-10-19T07:52:06;17.88;;;9.82;;
82722;SDS011;72450;42.008;21.356;2023-10-19T07:54:35;12.77;;;9.55;;
82722;SDS011;72450;42.008;21.356;2023-10-19T07:57:02;18.73;;;11.25;;
82722;SDS011;72450;42.008;21.356;2023-10-19T07:59:31;14.18;;;8.95;;
82722;SDS011;72450;42.008;21.356;2023-10-19T08:01:57;17.08;;;10.30;;
82722;SDS011;72450;42.008;21.356;2023-10-19T08:04:27;14.20;;;10.02;;
82722;SDS011;72450;42.008;21.356;2023-10-19T08:06:53;25.35;;;15.05;;
82722;SDS011;72450;42.008;21.356;2023-10-19T08:09:20;18.73;;;12.40;;
82722;SDS011;72450;42.008;21.356;2023-10-19T08:11:50;15.18;;;9.68;;
82722;SDS011;72450;42.008;21.356;2023-10-19T08:14:26;14.48;;;9.80;;
82722;SDS011;72450;42.008;21.356;2023-10-19T08:16:53;19.08;;;11.27;;
82722;SDS011;72450;42.008;21.356;2023-10-19T08:19:19;16.45;;;11.00;;
82722;SDS011;72450;42.008;21.356;2023-10-19T08:21:45;15.85;;;10.52;;
82722;SDS011;72450;42.008;21.356;2023-10-19T08:24:12;15.82;;;10.25;;
82722;SDS011;72450;42.008;21.356;2023-10-19T08:26:43;15.90;;;11.63;;
82722;SDS011;72450;42.008;21.356;2023-10-19T08:29:11;14.18;;;10.23;;
82722;SDS011;72450;42.008;21.356;2023-10-19T08:31:43;20.98;;;12.40;;
82722;SDS011;72450;42.008;21.356;2023-10-19T08:34:10;15.00;;;7.50;;
82722;SDS011;72450;42.008;21.356;2023-10-19T08:39:04;13.00;;;8.43;;
82722;SDS011;72450;42.008;21.356;2023-10-19T08:41:31;14.27;;;8.88;;
82722;SDS011;72450;42.008;21.356;2023-10-19T08:43:57;17.63;;;10.80;;
82722;SDS011;72450;42.008;21.356;2023-10-19T08:46:24;20.27;;;10.82;;
82722;SDS011;72450;42.008;21.356;2023-10-19T08:48:50;15.23;;;9.30;;
82722;SDS011;72450;42.008;21.356;2023-10-19T08:51:19;18.88;;;9.93;;
82722;SDS011;72450;42.008;21.356;2023-10-19T08:53:45;15.90;;;8.30;;
82722;SDS011;72450;42.008;21.356;2023-10-19T08:56:11;12.45;;;8.23;;
82722;SDS011;72450;42.008;21.356;2023-10-19T08:58:37;16.95;;;8.48;;
82722;SDS011;72450;42.008;21.356;2023-10-19T09:01:04;15.55;;;8.05;;
82722;SDS011;72450;42.008;21.356;2023-10-19T09:03:35;21.83;;;9.40;;
82722;SDS011;72450;42.008;21.356;2023-10-19T09:06:01;14.80;;;8.82;;
82722;SDS011;72450;42.008;21.356;2023-10-19T09:08:28;14.38;;;9.30;;
82722;SDS011;72450;42.008;21.356;2023-10-19T09:11:06;13.45;;;8.48;;
82722;SDS011;72450;42.008;21.356;2023-10-19T09:13:47;15.15;;;8.35;;
82722;SDS011;72450;42.008;21.356;2023-10-19T09:16:13;14.15;;;7.45;;
82722;SDS011;72450;42.008;21.356;2023-10-19T09:18:40;12.52;;;7.95;;
82722;SDS011;72450;42.008;21.356;2023-10-19T09:21:06;13.57;;;7.70;;
82722;SDS011;72450;42.008;21.356;2023-10-19T09:23:36;9.68;;;7.00;;
82722;SDS011;72450;42.008;21.356;2023-10-19T09:26:03;9.82;;;7.18;;
82722;SDS011;72450;42.008;21.356;2023-10-19T09:28:30;8.40;;;5.95;;
82722;SDS011;72450;42.008;21.356;2023-10-19T09:30:59;9.65;;;6.53;;
82722;SDS011;72450;42.008;21.356;2023-10-19T09:33:26;6.10;;;5.32;;
82722;SDS011;72450;42.008;21.356;2023-10-19T09:35:54;8.82;;;7.47;;
82722;SDS011;72450;42.008;21.356;2023-10-19T09:38:25;9.23;;;5.57;;
82722;SDS011;72450;42.008;21.356;2023-10-19T09:40:52;7.88;;;6.18;;
82722;SDS011;72450;42.008;21.356;2023-10-19T09:43:39;11.55;;;5.32;;
82722;SDS011;72450;42.008;21.356;2023-10-19T09:46:07;11.57;;;6.13;;
82722;SDS011;72450;42.008;21.356;2023-10-19T09:48:36;8.00;;;6.20;;
82722;SDS011;72450;42.008;21.356;2023-10-19T09:51:04;6.22;;;4.57;;
82722;SDS011;72450;42.008;21.356;2023-10-19T09:53:33;10.70;;;5.82;;
82722;SDS011;72450;42.008;21.356;2023-10-19T09:55:59;8.48;;;6.25;;
82722;SDS011;72450;42.008;21.356;2023-10-19T09:58:27;7.50;;;5.50;;
82722;SDS011;72450;42.008;21.356;2023-10-19T10:00:54;7.63;;;6.05;;
82722;SDS011;72450;42.008;21.356;2023-10-19T10:06:07;8.68;;;5.63;;
82722;SDS011;72450;42.008;21.356;2023-10-19T10:08:35;8.80;;;6.03;;
82722;SDS011;72450;42.008;21.356;2023-10-19T10:13:47;9.10;;;6.68;;
82722;SDS011;72450;42.008;21.356;2023-10-19T10:16:21;10.88;;;6.20;;
82722;SDS011;72450;42.008;21.356;2023-10-19T10:18:49;7.57;;;5.50;;
82722;SDS011;72450;42.008;21.356;2023-10-19T10:23:42;10.55;;;6.38;;
82722;SDS011;72450;42.008;21.356;2023-10-19T10:31:13;7.90;;;5.97;;
82722;SDS011;72450;42.008;21.356;2023-10-19T10:33:46;9.07;;;6.80;;
82722;SDS011;72450;42.008;21.356;2023-10-19T10:36:13;11.48;;;7.13;;
82722;SDS011;72450;42.008;21.356;2023-10-19T10:38:40;9.70;;;6.93;;
82722;SDS011;72450;42.008;21.356;2023-10-19T10:41:06;8.35;;;6.57;;
82722;SDS011;72450;42.008;21.356;2023-10-19T10:43:52;8.40;;;5.85;;
82722;SDS011;72450;42.008;21.356;2023-10-19T10:46:18;9.48;;;6.40;;
82722;SDS011;72450;42.008;21.356;2023-10-19T10:48:46;8.88;;;6.38;;
82722;SDS011;72450;42.008;21.356;2023-10-19T10:51:19;10.25;;;6.22;;
82722;SDS011;72450;42.008;21.356;2023-10-19T10:58:38;8.73;;;6.35;;
82722;SDS011;72450;42.008;21.356;2023-10-19T11:01:05;8.30;;;6.50;;
82722;SDS011;72450;42.008;21.356;2023-10-19T11:03:31;8.43;;;6.60;;
82722;SDS011;72450;42.008;21.356;2023-10-19T11:06:04;9.48;;;7.53;;
82722;SDS011;72450;42.008;21.356;2023-10-19T11:08:33;9.50;;;7.40;;
82722;SDS011;72450;42.008;21.356;2023-10-19T11:11:02;9.02;;;7.57;;
82722;SDS011;72450;42.008;21.356;2023-10-19T11:13:29;12.65;;;7.00;;
82722;SDS011;72450;42.008;21.356;2023-10-19T11:15:58;9.80;;;6.95;;
82722;SDS011;72450;42.008;21.356;2023-10-19T11:18:29;10.77;;;7.70;;
82722;SDS011;72450;42.008;21.356;2023-10-19T11:20:56;12.05;;;7.25;;
82722;SDS011;72450;42.008;21.356;2023-10-19T11:28:58;8.90;;;6.28;;
82722;SDS011;72450;42.008;21.356;2023-10-19T11:31:25;11.13;;;7.47;;
82722;SDS011;72450;42.008;21.356;2023-10-19T11:33:53;8.68;;;7.30;;
82722;SDS011;72450;42.008;21.356;2023-10-19T11:36:23;9.80;;;7.20;;
82722;SDS011;72450;42.008;21.356;2023-10-19T11:38:52;8.23;;;6.97;;
82722;SDS011;72450;42.008;21.356;2023-10-19T11:41:20;11.70;;;7.90;;
82722;SDS011;72450;42.008;21.356;2023-10-19T11:43:47;9.30;;;7.78;;
82722;SDS011;72450;42.008;21.356;2023-10-19T11:46:13;11.77;;;7.63;;
82722;SDS011;72450;42.008;21.356;2023-10-19T11:48:40;9.73;;;6.90;;
82722;SDS011;72450;42.008;21.356;2023-10-19T11:51:07;9.40;;;7.25;;
82722;SDS011;72450;42.008;21.356;2023-10-19T11:53:36;7.85;;;6.97;;
82722;SDS011;72450;42.008;21.356;2023-10-19T11:56:03;8.90;;;7.38;;
82722;SDS011;72450;42.008;21.356;2023-10-19T11:58:30;10.40;;;7.18;;
82722;SDS011;72450;42.008;21.356;2023-10-19T12:01:03;8.55;;;7.22;;
82722;SDS011;72450;42.008;21.356;2023-10-19T12:03:39;9.10;;;7.20;;
82722;SDS011;72450;42.008;21.356;2023-10-19T12:06:09;9.20;;;6.50;;
82722;SDS011;72450;42.008;21.356;2023-10-19T12:08:35;8.40;;;6.82;;
82722;SDS011;72450;42.008;21.356;2023-10-19T12:11:02;8.52;;;6.28;;
82722;SDS011;72450;42.008;21.356;2023-10-19T12:13:40;6.47;;;5.88;;
82722;SDS011;72450;42.008;21.356;2023-10-19T12:16:08;8.25;;;6.32;;
82722;SDS011;72450;42.008;21.356;2023-10-19T12:18:37;10.25;;;6.63;;
82722;SDS011;72450;42.008;21.356;2023-10-19T12:21:04;7.72;;;6.38;;
82722;SDS011;72450;42.008;21.356;2023-10-19T12:23:36;7.68;;;6.50;;
82722;SDS011;72450;42.008;21.356;2023-10-19T12:26:02;8.57;;;6.65;;
82722;SDS011;72450;42.008;21.356;2023-10-19T12:28:33;8.38;;;5.95;;
82722;SDS011;72450;42.008;21.356;2023-10-19T12:30:59;7.72;;;6.63;;
82722;SDS011;72450;42.008;21.356;2023-10-19T12:33:26;8.98;;;6.45;;
82722;SDS011;72450;42.008;21.356;2023-10-19T12:35:52;8.18;;;6.38;;
82722;SDS011;72450;42.008;21.356;2023-10-19T12:38:21;7.22;;;6.20;;
82722;SDS011;72450;42.008;21.356;2023-10-19T12:40:48;9.88;;;6.13;;
82722;SDS011;72450;42.008;21.356;2023-10-19T12:43:16;9.15;;;7.07;;
82722;SDS011;72450;42.008;21.356;2023-10-19T12:45:44;8.70;;;5.85;;
82722;SDS011;72450;42.008;21.356;2023-10-19T12:48:15;7.90;;;6.97;;
82722;SDS011;72450;42.008;21.356;2023-10-19T12:50:41;6.97;;;6.28;;
82722;SDS011;72450;42.008;21.356;2023-10-19T12:53:08;8.43;;;6.95;;
82722;SDS011;72450;42.008;21.356;2023-10-19T12:55:36;8.40;;;6.70;;
82722;SDS011;72450;42.008;21.356;2023-10-19T12:58:03;10.40;;;6.55;;
82722;SDS011;72450;42.008;21.356;2023-10-19T13:00:33;8.32;;;6.50;;
82722;SDS011;72450;42.008;21.356;2023-10-19T13:03:07;7.78;;;6.85;;
82722;SDS011;72450;42.008;21.356;2023-10-19T13:05:36;8.65;;;7.22;;
82722;SDS011;72450;42.008;21.356;2023-10-19T13:08:05;10.10;;;7.18;;
82722;SDS011;72450;42.008;21.356;2023-10-19T13:13:00;8.40;;;6.43;;
82722;SDS011;72450;42.008;21.356;2023-10-19T13:15:33;6.95;;;6.15;;
82722;SDS011;72450;42.008;21.356;2023-10-19T13:18:02;9.80;;;6.75;;
82722;SDS011;72450;42.008;21.356;2023-10-19T13:20:30;9.30;;;6.72;;
82722;SDS011;72450;42.008;21.356;2023-10-19T13:23:00;8.18;;;7.25;;
82722;SDS011;72450;42.008;21.356;2023-10-19T13:25:28;9.80;;;8.23;;
82722;SDS011;72450;42.008;21.356;2023-10-19T13:28:10;11.32;;;8.95;;
82722;SDS011;72450;42.008;21.356;2023-10-19T13:30:41;11.50;;;8.90;;
82722;SDS011;72450;42.008;21.356;2023-10-19T13:33:08;9.82;;;6.63;;
82722;SDS011;72450;42.008;21.356;2023-10-19T13:35:35;8.23;;;6.80;;
82722;SDS011;72450;42.008;21.356;2023-10-19T13:38:02;8.20;;;7.03;;
82722;SDS011;72450;42.008;21.356;2023-10-19T13:40:29;9.30;;;7.05;;
82722;SDS011;72450;42.008;21.356;2023-10-19T13:42:56;8.88;;;6.95;;
82722;SDS011;72450;42.008;21.356;2023-10-19T13:45:22;12.10;;;7.97;;
82722;SDS011;72450;42.008;21.356;2023-10-19T13:47:48;11.85;;;7.30;;
82722;SDS011;72450;42.008;21.356;2023-10-19T13:50:14;8.10;;;6.90;;
82722;SDS011;72450;42.008;21.356;2023-10-19T13:52:40;10.48;;;7.65;;
82722;SDS011;72450;42.008;21.356;2023-10-19T13:55:07;9.63;;;7.47;;
82722;SDS011;72450;42.008;21.356;2023-10-19T13:57:33;10.85;;;8.48;;
82722;SDS011;72450;42.008;21.356;2023-10-19T13:59:59;8.98;;;7.78;;
82722;SDS011;72450;42.008;21.356;2023-10-19T14:02:26;12.00;;;7.10;;
82722;SDS011;72450;42.008;21.356;2023-10-19T14:04:52;12.00;;;8.90;;
82722;SDS011;72450;42.008;21.356;2023-10-19T14:07:18;11.65;;;8.60;;
82722;SDS011;72450;42.008;21.356;2023-10-19T14:09:45;13.40;;;7.85;;
82722;SDS011;72450;42.008;21.356;2023-10-19T14:12:11;12.27;;;8.43;;
82722;SDS011;72450;42.008;21.356;2023-10-19T14:14:37;9.10;;;7.18;;
82722;SDS011;72450;42.008;21.356;2023-10-19T14:17:03;10.82;;;8.15;;
82722;SDS011;72450;42.008;21.356;2023-10-19T14:19:30;14.23;;;8.70;;
82722;SDS011;72450;42.008;21.356;2023-10-19T14:21:56;9.55;;;7.85;;
82722;SDS011;72450;42.008;21.356;2023-10-19T14:24:22;14.23;;;8.77;;
82722;SDS011;72450;42.008;21.356;2023-10-19T14:26:49;11.23;;;8.45;;
82722;SDS011;72450;42.008;21.356;2023-10-19T14:29:15;8.98;;;7.78;;
82722;SDS011;72450;42.008;21.356;2023-10-19T14:31:41;10.32;;;7.95;;
82722;SDS011;72450;42.008;21.356;2023-10-19T14:34:07;13.93;;;8.85;;
82722;SDS011;72450;42.008;21.356;2023-10-19T14:36:33;13.82;;;8.48;;
82722;SDS011;72450;42.008;21.356;2023-10-19T14:38:59;12.93;;;8.27;;
82722;SDS011;72450;42.008;21.356;2023-10-19T14:41:28;10.77;;;8.52;;
82722;SDS011;72450;42.008;21.356;2023-10-19T14:43:55;13.55;;;8.48;;
82722;SDS011;72450;42.008;21.356;2023-10-19T14:46:21;12.40;;;8.45;;
82722;SDS011;72450;42.008;21.356;2023-10-19T14:48:47;11.18;;;8.02;;
82722;SDS011;72450;42.008;21.356;2023-10-19T14:51:13;12.30;;;7.93;;
82722;SDS011;72450;42.008;21.356;2023-10-19T14:53:39;13.35;;;8.57;;
82722;SDS011;72450;42.008;21.356;2023-10-19T14:56:06;10.65;;;8.23;;
82722;SDS011;72450;42.008;21.356;2023-10-19T14:58:32;12.23;;;8.45;;
82722;SDS011;72450;42.008;21.356;2023-10-19T15:00:59;13.13;;;8.73;;
82722;SDS011;72450;42.008;21.356;2023-10-19T15:03:25;19.50;;;9.85;;
82722;SDS011;72450;42.008;21.356;2023-10-19T15:05:53;14.82;;;8.13;;